Time;durP1;ratioP1;P1;durP2;ratioP2;P2;SDS_P1;SDS_P2;PMS_P1;PMS_P2;Temp;Humidity;BMP_temperature;BMP_pressure;BME280_temperature;BME280_humidity;BME280_pressure;Samples;Min_cycle;Max_cycle;Signal;HPM_P1;HPM_P2
2023/01/14 00:01:11;;;;;;;;;;;18.00;43.80;;;;;;8365381;28;19932;-45
2023/01/14 00:05:12;;;;;;;;;;;18.00;43.50;;;;;;8365087;28;19986;-45
2023/01/14 00:09:13;;;;;;;;;;;18.00;43.20;;;;;;8365158;28;19921;-45
2023/01/14 00:13:13;;;;;;;;;;;18.00;43.40;;;;;;8365509;28;19917;-45
2023/01/14 00:17:14;;;;;;;;;;;18.00;43.30;;;;;;8364497;28;20366;-45
2023/01/14 00:21:14;;;;;;;;;;;17.90;43.20;;;;;;8364891;28;19929;-44
2023/01/14 00:25:15;;;;;;;;;;;17.90;43.30;;;;;;8364796;28;20377;-44
2023/01/14 00:29:16;;;;;;;;;;;17.90;43.30;;;;;;8364100;28;20293;-45
2023/01/14 00:33:17;;;;;;;;;;;17.90;43.70;;;;;;8364568;28;19913;-45
2023/01/14 00:37:17;;;;;;;;;;;17.90;43.70;;;;;;8364241;28;19917;-45
2023/01/14 00:41:20;;;;;;;;;;;17.90;43.50;;;;;;8363749;28;19925;-45
2023/01/14 00:45:20;;;;;;;;;;;17.90;43.50;;;;;;8364474;28;19917;-46
2023/01/14 00:49:22;;;;;;;;;;;17.90;43.90;;;;;;8363894;28;19959;-45
2023/01/14 00:53:22;;;;;;;;;;;17.90;43.90;;;;;;8363614;28;20406;-45
2023/01/14 00:57:23;;;;;;;;;;;17.90;44.30;;;;;;8363528;28;19931;-45
2023/01/14 01:01:23;;;;;;;;;;;17.90;44.30;;;;;;8363703;28;19921;-46
2023/01/14 01:05:24;;;;;;;;;;;17.90;44.20;;;;;;8363202;28;19953;-45
2023/01/14 01:09:24;;;;;;;;;;;17.90;44.30;;;;;;8363698;28;19952;-45
2023/01/14 01:13:25;;;;;;;;;;;17.80;44.20;;;;;;8363966;28;19916;-46
2023/01/14 01:17:25;;;;;;;;;;;17.80;44.20;;;;;;8362752;28;19917;-45
2023/01/14 01:21:26;;;;;;;;;;;17.90;44.40;;;;;;8363381;28;19943;-46
2023/01/14 01:25:27;;;;;;;;;;;17.90;44.50;;;;;;8363233;28;19913;-44
2023/01/14 01:29:27;;;;;;;;;;;17.80;44.40;;;;;;8362772;28;20002;-45
2023/01/14 01:33:28;;;;;;;;;;;17.80;44.50;;;;;;8363070;28;19919;-45
2023/01/14 01:37:29;;;;;;;;;;;17.80;44.10;;;;;;8363642;28;19975;-45
2023/01/14 01:41:30;;;;;;;;;;;17.80;43.90;;;;;;8369651;28;19971;-44
2023/01/14 01:45:42;;;;;;;;;;;17.90;44.30;;;;;;8369884;28;19954;-44
2023/01/14 01:49:43;;;;;;;;;;;17.80;44.30;;;;;;8369362;28;20408;-42
2023/01/14 01:53:44;;;;;;;;;;;17.80;44.30;;;;;;8369619;28;19996;-44
2023/01/14 01:57:51;;;;;;;;;;;17.80;44.50;;;;;;8369535;28;19963;-44
2023/01/14 02:01:52;;;;;;;;;;;17.80;44.10;;;;;;8368811;28;20450;-44
2023/01/14 02:05:53;;;;;;;;;;;17.80;44.10;;;;;;8369373;28;19995;-44
2023/01/14 02:09:56;;;;;;;;;;;17.80;44.60;;;;;;8368097;28;19970;-45
2023/01/14 02:13:56;;;;;;;;;;;17.80;44.20;;;;;;8368660;28;19912;-45
2023/01/14 02:18:09;;;;;;;;;;;17.80;44.40;;;;;;8368659;28;20374;-45
2023/01/14 02:22:22;;;;;;;;;;;17.80;44.40;;;;;;8368584;28;19948;-45
2023/01/14 02:26:41;;;;;;;;;;;17.80;44.40;;;;;;8367922;28;20023;-46
2023/01/14 02:30:50;;;;;;;;;;;17.80;44.10;;;;;;8368332;28;19943;-44
2023/01/14 02:34:57;;;;;;;;;;;17.80;44.50;;;;;;8367701;28;19921;-43
2023/01/14 02:39:01;;;;;;;;;;;17.80;44.50;;;;;;8368432;28;19935;-44
2023/01/14 02:47:30;;;;;;;;;;;17.70;44.30;;;;;;8368052;28;19966;-45
2023/01/14 02:51:31;;;;;;;;;;;17.70;44.20;;;;;;8367690;28;19943;-44
2023/01/14 02:55:34;;;;;;;;;;;17.70;44.30;;;;;;8367788;28;19982;-44
2023/01/14 03:00:04;;;;;;;;;;;17.70;44.80;;;;;;8366974;28;19924;-44
2023/01/14 03:04:28;;;;;;;;;;;17.70;44.90;;;;;;8350402;28;19952;-45
2023/01/14 03:08:36;;;;;;;;;;;17.70;44.80;;;;;;8366644;28;19917;-43
2023/01/14 03:12:49;;;;;;;;;;;17.80;44.70;;;;;;8367248;28;20377;-44
2023/01/14 03:17:08;;;;;;;;;;;17.70;44.30;;;;;;8366511;28;19956;-44
2023/01/14 03:21:12;;;;;;;;;;;17.70;44.50;;;;;;8366703;28;20400;-45
2023/01/14 03:25:13;;;;;;;;;;;17.70;45.10;;;;;;8366769;28;19920;-46
2023/01/14 03:29:15;;;;;;;;;;;17.70;44.50;;;;;;8366268;28;19913;-45
2023/01/14 03:33:24;;;;;;;;;;;17.70;44.40;;;;;;8366913;28;20281;-45
2023/01/14 03:37:26;;;;;;;;;;;17.70;44.40;;;;;;8366615;28;20385;-45
2023/01/14 03:45:47;;;;;;;;;;;17.70;44.60;;;;;;8368172;28;19943;-44
2023/01/14 03:49:48;;;;;;;;;;;17.70;44.40;;;;;;8365678;28;19958;-44
2023/01/14 03:53:54;;;;;;;;;;;17.70;44.30;;;;;;8365666;28;20289;-45
2023/01/14 03:58:17;;;;;;;;;;;17.70;44.40;;;;;;8365758;28;20415;-45
2023/01/14 04:02:18;;;;;;;;;;;17.70;44.40;;;;;;8364462;28;20035;-44
2023/01/14 04:06:18;;;;;;;;;;;17.60;44.10;;;;;;8365315;28;19931;-44
2023/01/14 04:10:19;;;;;;;;;;;17.60;44.20;;;;;;8365336;28;19924;-45
2023/01/14 04:18:39;;;;;;;;;;;17.70;44.20;;;;;;8368112;28;20404;-44
2023/01/14 04:22:39;;;;;;;;;;;17.60;44.10;;;;;;8364660;28;20085;-44
2023/01/14 04:26:40;;;;;;;;;;;17.70;44.10;;;;;;8364141;28;19920;-44
2023/01/14 04:30:41;;;;;;;;;;;17.70;44.10;;;;;;8364470;28;19920;-44
2023/01/14 04:34:41;;;;;;;;;;;17.70;44.10;;;;;;8364779;28;19923;-44
2023/01/14 04:38:42;;;;;;;;;;;17.70;44.20;;;;;;8363747;28;20378;-45
2023/01/14 04:42:42;;;;;;;;;;;17.60;44.00;;;;;;8364401;28;19916;-44
2023/01/14 04:46:43;;;;;;;;;;;17.70;44.10;;;;;;8363585;28;19913;-43
2023/01/14 04:50:45;;;;;;;;;;;17.70;44.70;;;;;;8364046;28;19967;-45
2023/01/14 04:54:45;;;;;;;;;;;17.70;43.90;;;;;;8364072;28;19943;-45
2023/01/14 04:58:46;;;;;;;;;;;17.70;43.70;;;;;;8363226;28;19952;-45
2023/01/14 05:02:47;;;;;;;;;;;17.70;43.90;;;;;;8364234;28;19917;-44
2023/01/14 05:06:47;;;;;;;;;;;17.70;43.90;;;;;;8362403;28;20380;-44
2023/01/14 05:10:49;;;;;;;;;;;17.70;44.40;;;;;;8363038;28;19921;-44
2023/01/14 05:14:49;;;;;;;;;;;17.80;44.70;;;;;;8363073;28;19936;-44
2023/01/14 05:18:51;;;;;;;;;;;17.90;44.80;;;;;;8363160;28;19929;-44
2023/01/14 05:22:51;;;;;;;;;;;17.90;44.60;;;;;;8362699;28;19917;-44
2023/01/14 05:26:52;;;;;;;;;;;18.00;44.30;;;;;;8363126;28;20346;-45
2023/01/14 05:30:52;;;;;;;;;;;18.10;44.10;;;;;;8363088;28;19924;-44
2023/01/14 05:34:52;;;;;;;;;;;18.20;44.30;;;;;;8362896;28;19912;-45
2023/01/14 05:38:53;;;;;;;;;;;18.20;44.00;;;;;;8362888;28;19924;-44
2023/01/14 05:47:12;;;;;;;;;;;18.30;43.50;;;;;;8363750;28;19924;-47
2023/01/14 05:51:13;;;;;;;;;;;18.40;43.70;;;;;;8362816;28;19943;-45
2023/01/14 05:55:13;;;;;;;;;;;18.40;43.70;;;;;;8363204;28;19931;-45
2023/01/14 05:59:14;;;;;;;;;;;18.50;43.90;;;;;;8362095;28;19925;-44
2023/01/14 06:07:35;;;;;;;;;;;18.60;43.90;;;;;;8362710;28;19924;-44
2023/01/14 06:11:38;;;;;;;;;;;18.60;43.90;;;;;;8362078;28;20266;-45
2023/01/14 06:15:39;;;;;;;;;;;18.70;44.00;;;;;;8362740;28;19964;-45
2023/01/14 06:19:39;;;;;;;;;;;18.70;43.90;;;;;;8362466;28;19925;-45
2023/01/14 06:23:40;;;;;;;;;;;18.80;44.00;;;;;;8362787;28;19928;-46
2023/01/14 06:27:41;;;;;;;;;;;18.80;44.00;;;;;;8368697;28;19939;-45
2023/01/14 06:31:41;;;;;;;;;;;18.80;43.60;;;;;;8368348;28;20380;-44
2023/01/14 06:35:43;;;;;;;;;;;18.80;43.70;;;;;;8368035;28;19917;-45
2023/01/14 06:39:44;;;;;;;;;;;18.80;43.40;;;;;;8368180;28;20337;-45
2023/01/14 06:43:44;;;;;;;;;;;18.90;43.60;;;;;;8367461;28;19917;-43
2023/01/14 06:47:46;;;;;;;;;;;18.90;43.80;;;;;;8368006;28;19917;-44
2023/01/14 06:51:46;;;;;;;;;;;18.90;43.80;;;;;;8367667;28;19917;-45
2023/01/14 06:55:48;;;;;;;;;;;18.90;43.70;;;;;;8367332;28;19927;-44
2023/01/14 06:59:48;;;;;;;;;;;19.00;43.80;;;;;;8367333;28;19925;-43
2023/01/14 07:03:49;;;;;;;;;;;19.00;43.60;;;;;;8367158;28;20242;-45
2023/01/14 07:07:50;;;;;;;;;;;19.00;43.60;;;;;;8366689;28;19917;-45
2023/01/14 07:11:50;;;;;;;;;;;19.10;43.60;;;;;;8366948;28;19921;-48
2023/01/14 07:15:51;;;;;;;;;;;19.10;43.60;;;;;;8367341;28;19912;-45
2023/01/14 07:19:52;;;;;;;;;;;19.10;43.40;;;;;;8366182;28;19925;-45
2023/01/14 07:23:52;;;;;;;;;;;19.10;43.40;;;;;;8366851;28;20402;-44
2023/01/14 07:27:53;;;;;;;;;;;19.10;43.30;;;;;;8366467;28;19917;-45
2023/01/14 07:31:53;;;;;;;;;;;19.20;43.30;;;;;;8365856;28;20290;-44
2023/01/14 07:35:54;;;;;;;;;;;19.20;43.40;;;;;;8365570;28;19948;-46
2023/01/14 07:39:55;;;;;;;;;;;19.20;43.40;;;;;;8366303;28;19925;-44
2023/01/14 07:43:55;;;;;;;;;;;19.20;43.30;;;;;;8365673;28;19943;-47
2023/01/14 07:47:56;;;;;;;;;;;19.20;43.40;;;;;;8366100;28;19916;-45
2023/01/14 07:51:57;;;;;;;;;;;19.30;44.00;;;;;;8365975;28;19952;-44
2023/01/14 07:56:01;;;;;;;;;;;19.20;43.40;;;;;;8365419;28;19920;-44
2023/01/14 08:00:01;;;;;;;;;;;19.30;43.40;;;;;;8365780;28;20282;-44
2023/01/14 08:04:02;;;;;;;;;;;19.30;43.80;;;;;;8358606;28;19920;-46
2023/01/14 08:08:02;;;;;;;;;;;19.30;43.30;;;;;;8364958;28;19928;-45
2023/01/14 08:12:03;;;;;;;;;;;19.30;43.20;;;;;;8365127;28;19917;-45
2023/01/14 08:16:04;;;;;;;;;;;19.40;43.20;;;;;;8365175;28;19917;-44
2023/01/14 08:20:04;;;;;;;;;;;19.40;43.80;;;;;;8364544;28;20258;-46
2023/01/14 08:24:05;;;;;;;;;;;19.50;43.70;;;;;;8364693;28;19923;-44
2023/01/14 08:28:06;;;;;;;;;;;19.50;43.70;;;;;;8360670;28;19924;-43
2023/01/14 08:32:06;;;;;;;;;;;19.50;43.30;;;;;;8352307;28;19916;-43
2023/01/14 08:36:08;;;;;;;;;;;19.50;43.20;;;;;;8364704;28;20270;-44
2023/01/14 08:40:09;;;;;;;;;;;19.50;43.00;;;;;;8358383;28;20344;-44
2023/01/14 08:44:10;;;;;;;;;;;19.40;43.10;;;;;;8357528;28;19943;-45
2023/01/14 08:48:10;;;;;;;;;;;19.40;43.20;;;;;;8363729;28;19935;-45
2023/01/14 08:52:11;;;;;;;;;;;19.40;43.30;;;;;;8363811;28;19913;-45
2023/01/14 08:56:15;;;;;;;;;;;19.40;43.40;;;;;;8363846;28;19920;-46
2023/01/14 09:00:16;;;;;;;;;;;19.40;43.50;;;;;;8363703;28;20344;-46
2023/01/14 09:04:17;;;;;;;;;;;19.40;43.50;;;;;;8363490;28;19913;-45
2023/01/14 09:17:04;;;;;;;;;;;19.40;43.20;;;;;;8365037;28;19924;-43
2023/01/14 09:21:05;;;;;;;;;;;19.30;43.00;;;;;;8363372;28;19925;-43
2023/01/14 09:25:06;;;;;;;;;;;19.30;43.00;;;;;;8363476;28;20320;-45
2023/01/14 09:29:06;;;;;;;;;;;19.20;43.40;;;;;;8361239;28;20001;-44
2023/01/14 09:33:07;;;;;;;;;;;19.20;43.40;;;;;;8362233;28;19975;-45
2023/01/14 09:37:10;;;;;;;;;;;19.30;43.60;;;;;;8362134;28;20403;-43
2023/01/14 09:41:22;;;;;;;;;;;19.30;43.80;;;;;;8362603;28;19929;-44
2023/01/14 09:45:32;;;;;;;;;;;19.30;43.70;;;;;;8362826;28;19924;-44
2023/01/14 09:49:33;;;;;;;;;;;19.30;43.40;;;;;;8363055;28;20334;-45
2023/01/14 09:53:49;;;;;;;;;;;19.30;43.20;;;;;;8362227;28;19917;-45
2023/01/14 09:57:53;;;;;;;;;;;19.40;43.10;;;;;;8362904;28;20020;-48
2023/01/14 10:01:58;;;;;;;;;;;19.40;43.00;;;;;;8368815;28;20377;-49
2023/01/14 10:06:05;;;;;;;;;;;19.40;43.00;;;;;;8369627;28;19916;-46
2023/01/14 10:10:12;;;;;;;;;;;19.40;42.90;;;;;;8369047;28;19939;-46
2023/01/14 10:14:16;;;;;;;;;;;19.50;42.90;;;;;;8368640;28;20370;-47
2023/01/14 10:18:27;;;;;;;;;;;19.50;42.80;;;;;;8368838;28;19924;-46
2023/01/14 10:22:31;;;;;;;;;;;19.60;42.80;;;;;;8369033;28;20313;-46
2023/01/14 10:26:32;;;;;;;;;;;19.50;42.80;;;;;;8368488;28;19943;-45
2023/01/14 10:30:33;;;;;;;;;;;19.50;42.70;;;;;;8368729;28;20309;-47
2023/01/14 10:34:38;;;;;;;;;;;19.50;42.70;;;;;;8368331;28;20026;-46
2023/01/14 10:38:42;;;;;;;;;;;19.50;42.60;;;;;;8367781;28;19924;-45
2023/01/14 10:42:42;;;;;;;;;;;19.50;42.60;;;;;;8368319;28;19913;-45
2023/01/14 10:46:45;;;;;;;;;;;19.50;42.60;;;;;;8367872;28;19970;-42
2023/01/14 10:50:45;;;;;;;;;;;19.50;42.70;;;;;;8368247;28;20277;-45
2023/01/14 10:55:00;;;;;;;;;;;19.40;42.60;;;;;;8367539;28;19928;-45
2023/01/14 10:59:00;;;;;;;;;;;19.40;42.60;;;;;;8367059;28;19970;-45
2023/01/14 11:03:02;;;;;;;;;;;19.40;42.70;;;;;;8367345;28;19917;-45
2023/01/14 11:07:08;;;;;;;;;;;19.40;42.70;;;;;;8367600;28;20289;-46
2023/01/14 11:11:14;;;;;;;;;;;19.40;42.70;;;;;;8365101;28;19917;-45
2023/01/14 11:15:41;;;;;;;;;;;19.40;42.70;;;;;;8367180;28;19921;-45
2023/01/14 11:19:41;;;;;;;;;;;19.50;42.70;;;;;;8363889;28;19929;-46
2023/01/14 11:23:51;;;;;;;;;;;19.50;42.60;;;;;;8366784;28;20296;-44
2023/01/14 11:27:52;;;;;;;;;;;19.50;42.50;;;;;;8367090;28;19920;-46
2023/01/14 11:31:58;;;;;;;;;;;19.60;42.40;;;;;;8366226;28;19964;-45
2023/01/14 11:35:59;;;;;;;;;;;19.60;42.40;;;;;;8366440;28;19920;-48
2023/01/14 11:40:00;;;;;;;;;;;19.60;42.40;;;;;;8366304;28;19982;-45
2023/01/14 11:44:02;;;;;;;;;;;19.60;42.30;;;;;;8365920;28;20016;-45
2023/01/14 11:48:21;;;;;;;;;;;19.60;42.30;;;;;;8366604;28;19935;-46
2023/01/14 11:52:21;;;;;;;;;;;19.60;42.30;;;;;;8366217;28;20289;-45
2023/01/14 11:56:27;;;;;;;;;;;19.70;42.30;;;;;;8365464;28;19921;-46
2023/01/14 12:00:29;;;;;;;;;;;19.60;42.30;;;;;;8365751;28;19925;-46
2023/01/14 12:04:33;;;;;;;;;;;19.60;42.30;;;;;;8365682;28;20328;-47
2023/01/14 12:08:35;;;;;;;;;;;19.60;42.30;;;;;;8363951;28;19920;-46
2023/01/14 12:16:48;;;;;;;;;;;19.60;42.30;;;;;;8364333;28;19955;-45
2023/01/14 12:17:18;;;;;;;;;;;19.60;42.30;;;;;;8364826;28;20423;-47
2023/01/14 12:21:21;;;;;;;;;;;19.50;42.30;;;;;;8364548;28;20007;-46
2023/01/14 12:25:28;;;;;;;;;;;19.50;42.30;;;;;;8365169;28;20374;-46
2023/01/14 12:29:33;;;;;;;;;;;19.50;42.90;;;;;;8364420;28;19917;-45
2023/01/14 12:33:33;;;;;;;;;;;19.50;42.30;;;;;;8364598;28;19939;-45
2023/01/14 12:37:54;;;;;;;;;;;19.50;42.30;;;;;;8364712;28;20266;-45
2023/01/14 12:46:18;;;;;;;;;;;19.50;42.40;;;;;;8368449;28;19985;-44
2023/01/14 12:50:19;;;;;;;;;;;19.50;42.40;;;;;;8364125;28;19917;-46
2023/01/14 12:54:24;;;;;;;;;;;19.50;42.40;;;;;;8362640;28;20362;-45
2023/01/14 12:58:26;;;;;;;;;;;19.60;42.40;;;;;;8364435;28;20027;-46
2023/01/14 13:02:33;;;;;;;;;;;19.60;42.30;;;;;;8361236;28;19917;-45
2023/01/14 13:06:37;;;;;;;;;;;19.60;42.30;;;;;;8363094;28;22151;-46
2023/01/14 13:10:38;;;;;;;;;;;19.60;42.30;;;;;;8363741;28;20366;-45
2023/01/14 13:14:39;;;;;;;;;;;19.60;42.60;;;;;;8363262;28;19994;-45
2023/01/14 13:18:42;;;;;;;;;;;19.60;42.30;;;;;;8362335;28;19960;-46
2023/01/14 13:22:52;;;;;;;;;;;19.60;42.30;;;;;;8362282;28;19923;-46
2023/01/14 13:26:54;;;;;;;;;;;19.60;42.30;;;;;;8361713;28;20396;-45
2023/01/14 13:31:04;;;;;;;;;;;19.60;42.30;;;;;;8345441;28;20305;-44
2023/01/14 13:35:17;;;;;;;;;;;19.60;42.30;;;;;;8362094;28;19917;-46
2023/01/14 13:39:18;;;;;;;;;;;19.60;42.30;;;;;;8363033;28;19931;-45
2023/01/14 13:43:21;;;;;;;;;;;19.60;42.30;;;;;;8363305;28;19917;-45
2023/01/14 13:47:42;;;;;;;;;;;19.60;42.20;;;;;;8362701;28;19928;-44
2023/01/14 13:51:45;;;;;;;;;;;19.70;42.30;;;;;;8362533;28;19941;-45
2023/01/14 13:55:54;;;;;;;;;;;19.60;42.30;;;;;;8362401;28;20282;-45
2023/01/14 13:59:57;;;;;;;;;;;19.60;42.20;;;;;;8362961;28;19925;-46
2023/01/14 14:03:58;;;;;;;;;;;19.60;42.30;;;;;;8362630;28;20262;-45
2023/01/14 14:08:08;;;;;;;;;;;19.60;42.30;;;;;;8361545;28;20007;-45
2023/01/14 14:14:03;;;;;;;;;;;19.60;42.30;;;;;;8362817;28;20004;-45
2023/01/14 14:16:34;;;;;;;;;;;19.60;42.30;;;;;;8362422;28;19917;-45
2023/01/14 14:20:37;;;;;;;;;;;19.60;42.30;;;;;;8361973;28;19929;-46
2023/01/14 14:24:39;;;;;;;;;;;19.60;42.30;;;;;;8362623;28;20437;-45
2023/01/14 14:28:41;;;;;;;;;;;19.60;42.30;;;;;;8362646;28;20000;-46
2023/01/14 14:32:42;;;;;;;;;;;19.60;42.20;;;;;;8361828;28;19921;-46
2023/01/14 14:36:44;;;;;;;;;;;19.70;42.30;;;;;;8362364;28;19964;-46
2023/01/14 14:40:44;;;;;;;;;;;19.60;42.20;;;;;;8361998;28;19925;-45
2023/01/14 14:44:53;;;;;;;;;;;19.60;42.70;;;;;;8363392;28;20396;-46
2023/01/14 14:48:53;;;;;;;;;;;19.60;42.20;;;;;;8368231;28;19952;-46
2023/01/14 14:52:54;;;;;;;;;;;19.60;42.20;;;;;;8366846;28;20385;-45
2023/01/14 14:56:55;;;;;;;;;;;19.60;42.30;;;;;;8367862;28;19928;-46
2023/01/14 15:01:03;;;;;;;;;;;19.60;42.30;;;;;;8367619;28;19920;-46
2023/01/14 15:05:05;;;;;;;;;;;19.60;42.20;;;;;;8367158;28;19924;-46
2023/01/14 15:09:08;;;;;;;;;;;19.70;42.20;;;;;;8367578;28;19920;-47
2023/01/14 15:13:19;;;;;;;;;;;19.60;42.20;;;;;;8367287;28;19917;-46
2023/01/14 15:17:20;;;;;;;;;;;19.60;42.20;;;;;;8366864;28;19917;-45
2023/01/14 15:21:24;;;;;;;;;;;19.60;42.20;;;;;;8366932;28;19947;-45
2023/01/14 15:25:25;;;;;;;;;;;19.60;42.20;;;;;;8366902;28;19913;-46
2023/01/14 15:29:27;;;;;;;;;;;19.60;42.20;;;;;;8366689;28;20290;-46
2023/01/14 15:33:29;;;;;;;;;;;19.60;42.20;;;;;;8366916;28;20373;-45
2023/01/14 15:37:29;;;;;;;;;;;19.60;42.20;;;;;;8366693;28;19921;-45
2023/01/14 15:41:34;;;;;;;;;;;19.60;42.20;;;;;;8365830;28;20364;-45
2023/01/14 15:45:34;;;;;;;;;;;19.60;42.30;;;;;;8366359;28;19920;-45
2023/01/14 15:49:35;;;;;;;;;;;19.60;42.20;;;;;;8366085;28;20389;-46
2023/01/14 15:53:35;;;;;;;;;;;19.60;42.20;;;;;;8365618;28;19923;-45
2023/01/14 15:57:40;;;;;;;;;;;19.60;42.20;;;;;;8365399;28;19927;-44
2023/01/14 16:01:47;;;;;;;;;;;19.60;42.20;;;;;;8365738;28;19944;-45
2023/01/14 16:05:47;;;;;;;;;;;19.60;42.20;;;;;;8365427;28;19920;-46
2023/01/14 16:09:56;;;;;;;;;;;19.60;42.10;;;;;;8365775;28;20033;-45
2023/01/14 16:13:57;;;;;;;;;;;19.60;42.10;;;;;;8365316;28;19924;-45
2023/01/14 16:18:14;;;;;;;;;;;19.60;42.10;;;;;;8365298;28;20378;-45
2023/01/14 16:22:14;;;;;;;;;;;19.60;42.20;;;;;;8365430;28;20289;-46
2023/01/14 16:26:15;;;;;;;;;;;19.60;42.20;;;;;;8364691;28;19924;-46
2023/01/14 16:30:17;;;;;;;;;;;19.60;42.30;;;;;;8363724;28;19921;-46
2023/01/14 16:34:17;;;;;;;;;;;19.60;42.30;;;;;;8365160;28;19939;-44
2023/01/14 16:38:18;;;;;;;;;;;19.60;42.30;;;;;;8364033;28;19931;-45
2023/01/14 16:42:18;;;;;;;;;;;19.60;42.20;;;;;;8364544;28;20335;-45
2023/01/14 16:46:18;;;;;;;;;;;19.60;42.20;;;;;;8364348;28;19967;-45
2023/01/14 16:50:19;;;;;;;;;;;19.60;42.20;;;;;;8363837;28;20374;-46
2023/01/14 16:54:20;;;;;;;;;;;19.60;42.20;;;;;;8364366;28;20324;-45
2023/01/14 16:58:20;;;;;;;;;;;19.60;42.20;;;;;;8363908;28;19921;-45
2023/01/14 17:02:21;;;;;;;;;;;19.60;42.20;;;;;;8363498;28;20021;-45
2023/01/14 17:06:21;;;;;;;;;;;19.60;42.20;;;;;;8362814;28;19917;-45
2023/01/14 17:10:22;;;;;;;;;;;19.60;42.20;;;;;;8363665;28;20400;-45
2023/01/14 17:14:23;;;;;;;;;;;19.60;42.30;;;;;;8363311;28;19913;-45
2023/01/14 17:18:23;;;;;;;;;;;19.60;42.30;;;;;;8363355;28;20003;-45
2023/01/14 17:22:23;;;;;;;;;;;19.60;42.30;;;;;;8363283;28;19925;-45
2023/01/14 17:26:24;;;;;;;;;;;19.60;42.20;;;;;;8362890;28;20054;-45
2023/01/14 17:30:26;;;;;;;;;;;19.60;42.30;;;;;;8363237;28;20362;-45
2023/01/14 17:34:29;;;;;;;;;;;19.60;42.20;;;;;;8363302;28;19913;-45
2023/01/14 17:38:29;;;;;;;;;;;19.60;42.20;;;;;;8362655;28;19924;-45
2023/01/14 17:42:30;;;;;;;;;;;19.60;42.20;;;;;;8363136;28;19924;-44
2023/01/14 17:46:31;;;;;;;;;;;19.60;42.30;;;;;;8363131;28;19982;-45
2023/01/14 17:50:31;;;;;;;;;;;19.60;42.30;;;;;;8362446;28;19917;-46
2023/01/14 17:54:32;;;;;;;;;;;19.60;42.20;;;;;;8363340;28;19944;-46
2023/01/14 17:58:33;;;;;;;;;;;19.60;42.30;;;;;;8362579;28;20366;-45
2023/01/14 18:02:34;;;;;;;;;;;19.60;42.30;;;;;;8362437;28;19921;-46
2023/01/14 18:06:35;;;;;;;;;;;19.60;42.30;;;;;;8362564;28;19990;-45
2023/01/14 18:10:35;;;;;;;;;;;19.60;42.30;;;;;;8362909;28;19913;-45
2023/01/14 18:14:36;;;;;;;;;;;19.60;42.20;;;;;;8362148;28;20016;-44
2023/01/14 18:18:36;;;;;;;;;;;19.60;42.20;;;;;;8362243;28;20282;-45
2023/01/14 18:22:38;;;;;;;;;;;19.60;42.20;;;;;;8367940;28;19917;-46
2023/01/14 18:26:39;;;;;;;;;;;19.60;42.20;;;;;;8368111;28;19962;-45
2023/01/14 18:30:39;;;;;;;;;;;19.60;42.30;;;;;;8368856;28;19913;-46
2023/01/14 18:34:40;;;;;;;;;;;19.60;42.20;;;;;;8368453;28;20286;-44
2023/01/14 18:38:40;;;;;;;;;;;19.60;42.30;;;;;;8366508;28;19968;-45
2023/01/14 18:42:41;;;;;;;;;;;19.60;42.30;;;;;;8368492;28;19921;-45
2023/01/14 18:46:41;;;;;;;;;;;19.60;42.30;;;;;;8368240;28;19920;-46
2023/01/14 18:50:42;;;;;;;;;;;19.60;42.30;;;;;;8367927;28;19920;-46
2023/01/14 18:54:42;;;;;;;;;;;19.60;42.30;;;;;;8366614;28;19920;-45
2023/01/14 18:58:44;;;;;;;;;;;19.60;42.30;;;;;;8366265;28;19932;-45
2023/01/14 19:02:44;;;;;;;;;;;19.60;42.20;;;;;;8367192;28;19924;-44
2023/01/14 19:06:46;;;;;;;;;;;19.60;42.20;;;;;;8366126;28;20406;-45
2023/01/14 19:10:53;;;;;;;;;;;19.60;42.30;;;;;;8366760;28;20384;-44
2023/01/14 19:14:54;;;;;;;;;;;19.60;42.20;;;;;;8367256;28;19917;-45
2023/01/14 19:18:55;;;;;;;;;;;19.70;42.30;;;;;;8367184;28;20304;-45
2023/01/14 19:22:55;;;;;;;;;;;19.60;42.20;;;;;;8366671;28;20340;-44
2023/01/14 19:26:56;;;;;;;;;;;19.70;42.30;;;;;;8367043;28;19917;-45
2023/01/14 19:31:00;;;;;;;;;;;19.70;42.30;;;;;;8366078;28;19912;-45
2023/01/14 19:35:01;;;;;;;;;;;19.60;42.30;;;;;;8366177;28;19917;-46
2023/01/14 19:39:01;;;;;;;;;;;19.60;42.30;;;;;;8366265;28;20281;-45
2023/01/14 19:43:06;;;;;;;;;;;19.70;42.30;;;;;;8366582;28;19921;-44
2023/01/14 19:47:06;;;;;;;;;;;19.60;42.20;;;;;;8365841;28;19936;-44
2023/01/14 19:51:10;;;;;;;;;;;19.60;42.20;;;;;;8366689;28;19913;-45
2023/01/14 19:55:10;;;;;;;;;;;19.70;42.20;;;;;;8366309;28;19921;-46
2023/01/14 19:59:12;;;;;;;;;;;19.70;42.30;;;;;;8365359;28;19936;-45
2023/01/14 20:03:13;;;;;;;;;;;19.70;42.20;;;;;;8365872;28;20366;-44
2023/01/14 20:07:13;;;;;;;;;;;19.60;42.20;;;;;;8364544;28;19917;-46
2023/01/14 20:11:14;;;;;;;;;;;19.60;42.30;;;;;;8365283;28;19913;-46
2023/01/14 20:15:15;;;;;;;;;;;19.60;42.30;;;;;;8365450;28;19970;-45
2023/01/14 20:19:15;;;;;;;;;;;19.60;42.30;;;;;;8363887;28;19925;-46
2023/01/14 20:23:16;;;;;;;;;;;19.60;42.20;;;;;;8363125;28;19967;-47
2023/01/14 20:27:16;;;;;;;;;;;19.70;42.30;;;;;;8365029;28;19917;-44
2023/01/14 20:31:21;;;;;;;;;;;19.60;42.20;;;;;;8365061;28;20046;-46
2023/01/14 20:35:21;;;;;;;;;;;19.70;42.30;;;;;;8364494;28;19921;-44
2023/01/14 20:39:23;;;;;;;;;;;19.70;42.30;;;;;;8364849;28;19924;-45
2023/01/14 20:43:27;;;;;;;;;;;19.70;42.30;;;;;;8364252;28;19927;-46
2023/01/14 20:47:29;;;;;;;;;;;19.60;42.20;;;;;;8363947;28;19920;-45
2023/01/14 20:51:30;;;;;;;;;;;19.60;42.20;;;;;;8364754;28;19948;-45
2023/01/14 20:55:32;;;;;;;;;;;19.60;42.30;;;;;;8364393;28;19921;-45
2023/01/14 20:59:33;;;;;;;;;;;19.60;42.80;;;;;;8363214;28;19929;-45
2023/01/14 21:03:34;;;;;;;;;;;19.70;42.30;;;;;;8363945;28;19923;-46
2023/01/14 21:07:34;;;;;;;;;;;19.60;42.30;;;;;;8363662;28;20019;-48
2023/01/14 21:11:35;;;;;;;;;;;19.60;42.20;;;;;;8362415;28;19920;-45
2023/01/14 21:24:14;;;;;;;;;;;19.60;42.20;;;;;;8364979;28;19962;-46
2023/01/14 21:28:14;;;;;;;;;;;19.60;42.20;;;;;;8363327;28;19948;-47
2023/01/14 21:32:15;;;;;;;;;;;19.60;42.20;;;;;;8361504;28;19912;-47
2023/01/14 21:36:15;;;;;;;;;;;19.60;42.20;;;;;;8363289;28;19913;-46
2023/01/14 21:40:17;;;;;;;;;;;19.50;42.20;;;;;;8363119;28;19925;-45
2023/01/14 21:44:18;;;;;;;;;;;19.50;42.30;;;;;;8362458;28;20363;-46
2023/01/14 21:48:18;;;;;;;;;;;19.50;42.30;;;;;;8363292;28;19917;-45
2023/01/14 21:52:20;;;;;;;;;;;19.50;42.30;;;;;;8363067;28;19912;-45
2023/01/14 21:56:23;;;;;;;;;;;19.50;42.30;;;;;;8366765;28;19920;-45
2023/01/14 22:00:23;;;;;;;;;;;19.50;42.30;;;;;;8351912;28;19924;-45
2023/01/14 22:04:27;;;;;;;;;;;19.50;42.40;;;;;;8369755;28;19916;-45
2023/01/14 22:08:27;;;;;;;;;;;19.40;42.30;;;;;;8368657;28;19924;-46
2023/01/14 22:12:28;;;;;;;;;;;19.40;42.40;;;;;;8369526;28;19945;-46
2023/01/14 22:16:28;;;;;;;;;;;19.40;42.40;;;;;;8369318;28;19916;-44
2023/01/14 22:20:28;;;;;;;;;;;19.40;42.40;;;;;;8368341;28;20019;-45
2023/01/14 22:24:29;;;;;;;;;;;19.30;42.50;;;;;;8368757;28;19920;-46
2023/01/14 22:28:29;;;;;;;;;;;19.30;42.50;;;;;;8368727;28;19917;-45
2023/01/14 22:32:30;;;;;;;;;;;19.30;42.60;;;;;;8367917;28;19917;-47
2023/01/14 22:36:30;;;;;;;;;;;19.30;42.70;;;;;;8369007;28;19916;-46
2023/01/14 22:40:31;;;;;;;;;;;19.20;42.50;;;;;;8368097;28;19925;-45
2023/01/14 22:44:32;;;;;;;;;;;19.20;42.60;;;;;;8367671;28;19999;-45
2023/01/14 22:48:34;;;;;;;;;;;19.20;42.60;;;;;;8368369;28;19987;-45
2023/01/14 22:52:34;;;;;;;;;;;19.10;42.50;;;;;;8368179;28;19917;-45
2023/01/14 22:56:35;;;;;;;;;;;19.10;42.60;;;;;;8367839;28;19927;-44
2023/01/14 23:00:36;;;;;;;;;;;19.10;42.60;;;;;;8367931;28;19944;-44
2023/01/14 23:04:37;;;;;;;;;;;19.10;42.60;;;;;;8365688;28;19940;-45
2023/01/14 23:08:37;;;;;;;;;;;19.10;42.60;;;;;;8366710;28;19963;-46
2023/01/14 23:12:38;;;;;;;;;;;19.00;42.60;;;;;;8367539;28;19944;-45
2023/01/14 23:25:17;;;;;;;;;;;19.00;42.60;;;;;;8371199;28;19923;-44
2023/01/14 23:29:17;;;;;;;;;;;19.00;42.60;;;;;;8366166;28;19917;-44
2023/01/14 23:33:18;;;;;;;;;;;19.00;42.60;;;;;;8366491;28;20366;-44
2023/01/14 23:37:18;;;;;;;;;;;19.00;42.60;;;;;;8366835;28;19940;-43
2023/01/14 23:41:18;;;;;;;;;;;19.00;42.60;;;;;;8365717;28;20023;-43
2023/01/14 23:45:19;;;;;;;;;;;18.90;42.60;;;;;;8366437;28;19917;-43
2023/01/14 23:49:19;;;;;;;;;;;18.90;42.60;;;;;;8366207;28;19913;-44
2023/01/14 23:53:20;;;;;;;;;;;18.90;42.60;;;;;;8365591;28;19917;-44
2023/01/14 23:57:20;;;;;;;;;;;18.90;42.70;;;;;;8365885;28;19924;-43
